createdAt,value
2018-01-30T00:01:34.496Z,1.10
2018-01-30T00:04:02.718Z,0.90
2018-01-30T00:06:30.200Z,1.30
2018-01-30T00:08:58.147Z,1.20
2018-01-30T00:11:25.605Z,3.10
2018-01-30T00:13:53.069Z,1.37
2018-01-30T00:16:20.543Z,1.47
2018-01-30T00:18:48.024Z,1.90
2018-01-30T00:21:16.258Z,1.20
2018-01-30T00:23:43.725Z,1.83
2018-01-30T00:26:11.652Z,1.60
2018-01-30T00:28:39.884Z,1.70
2018-01-30T00:31:07.361Z,1.93
2018-01-30T00:33:35.590Z,1.70
2018-01-30T00:36:03.065Z,1.10
2018-01-30T00:38:30.547Z,2.27
2018-01-30T00:40:58.011Z,1.77
2018-01-30T00:43:26.255Z,1.87
2018-01-30T00:45:53.723Z,1.47
2018-01-30T00:48:21.191Z,2.23
2018-01-30T00:50:48.658Z,2.83
2018-01-30T00:53:16.901Z,1.30
2018-01-30T00:55:44.358Z,1.90
2018-01-30T00:58:11.847Z,1.67
2018-01-30T01:00:39.372Z,1.90
2018-01-30T01:03:06.843Z,1.83
2018-01-30T01:05:34.305Z,2.50
2018-01-30T01:08:01.793Z,1.80
2018-01-30T01:10:30.018Z,2.00
2018-01-30T01:12:57.494Z,1.40
2018-01-30T01:15:24.954Z,1.23
2018-01-30T01:17:52.425Z,2.00
2018-01-30T01:20:19.894Z,2.23
2018-01-30T01:22:47.367Z,1.50
2018-01-30T01:25:15.594Z,1.60
2018-01-30T01:27:43.092Z,1.87
2018-01-30T01:30:11.335Z,2.17
2018-01-30T01:32:38.807Z,1.90
2018-01-30T01:35:06.262Z,1.30
2018-01-30T01:37:33.741Z,1.60
2018-01-30T01:40:01.987Z,1.60
2018-01-30T01:42:29.447Z,1.53
2018-01-30T01:44:56.922Z,1.67
2018-01-30T01:47:24.385Z,2.10
2018-01-30T01:49:51.843Z,1.90
2018-01-30T01:52:19.310Z,2.20
2018-01-30T01:54:47.545Z,1.80
2018-01-30T01:57:15.786Z,2.47
2018-01-30T01:59:43.256Z,3.37
2018-01-30T02:02:10.728Z,2.30
2018-01-30T02:04:38.202Z,2.40
2018-01-30T02:07:05.695Z,1.87
2018-01-30T02:09:33.146Z,1.83
2018-01-30T02:12:00.626Z,1.80
2018-01-30T02:14:28.097Z,4.63
2018-01-30T02:16:55.563Z,2.10
2018-01-30T02:19:23.018Z,3.33
2018-01-30T02:21:50.496Z,2.87
2018-01-30T02:24:17.962Z,2.20
2018-01-30T02:26:45.436Z,2.50
2018-01-30T02:29:12.904Z,2.73
2018-01-30T02:31:40.379Z,2.50
2018-01-30T02:34:08.614Z,2.37
2018-01-30T02:36:36.082Z,2.00
2018-01-30T02:39:03.565Z,2.93
2018-01-30T02:41:31.803Z,2.70
2018-01-30T02:43:59.280Z,2.20
2018-01-30T02:46:26.763Z,2.10
2018-01-30T02:48:55.012Z,2.43
2018-01-30T02:51:22.469Z,2.40
2018-01-30T02:53:49.942Z,2.77
2018-01-30T02:56:17.406Z,3.07
2018-01-30T02:58:44.894Z,2.27
2018-01-30T03:01:12.355Z,2.27
2018-01-30T03:03:39.837Z,2.00
2018-01-30T03:06:07.309Z,2.57
2018-01-30T03:08:34.791Z,2.20
2018-01-30T03:11:02.262Z,2.40
2018-01-30T03:13:30.498Z,2.90
2018-01-30T03:15:57.971Z,2.60
2018-01-30T03:18:25.433Z,2.40
2018-01-30T03:20:52.898Z,2.80
2018-01-30T03:23:20.369Z,2.53
2018-01-30T03:25:48.907Z,2.10
2018-01-30T03:28:16.383Z,2.00
2018-01-30T03:30:43.847Z,2.20
2018-01-30T03:33:11.319Z,2.20
2018-01-30T03:35:39.551Z,2.60
2018-01-30T03:38:07.030Z,2.93
2018-01-30T03:40:34.489Z,1.97
2018-01-30T03:43:01.958Z,2.57
2018-01-30T03:45:29.430Z,2.03
2018-01-30T03:47:57.682Z,1.70
2018-01-30T03:50:25.142Z,2.60
2018-01-30T03:52:52.611Z,2.03
2018-01-30T03:55:20.067Z,2.57
2018-01-30T03:57:48.494Z,2.03
2018-01-30T04:00:15.962Z,1.53
2018-01-30T04:02:43.451Z,3.10
2018-01-30T04:05:10.963Z,2.80
2018-01-30T04:07:38.430Z,1.90
2018-01-30T04:10:05.907Z,2.63
2018-01-30T04:12:33.378Z,2.87
2018-01-30T04:15:00.844Z,2.40
2018-01-30T04:17:28.318Z,2.50
2018-01-30T04:19:55.786Z,2.30
2018-01-30T04:22:24.035Z,2.67
2018-01-30T04:24:51.507Z,2.93
2018-01-30T04:27:18.983Z,2.73
2018-01-30T04:29:46.445Z,2.60
2018-01-30T04:32:14.682Z,2.77
2018-01-30T04:34:42.150Z,2.50
2018-01-30T04:37:09.620Z,2.67
2018-01-30T04:39:37.077Z,2.73
2018-01-30T04:42:04.547Z,2.57
2018-01-30T04:44:32.778Z,2.60
2018-01-30T04:47:00.243Z,2.37
2018-01-30T04:49:27.710Z,2.60
2018-01-30T04:51:55.191Z,3.43
2018-01-30T04:54:22.666Z,2.40
2018-01-30T04:56:50.892Z,2.87
2018-01-30T04:59:18.366Z,3.53
2018-01-30T05:01:45.821Z,2.30
2018-01-30T05:04:13.285Z,3.13
2018-01-30T05:06:40.779Z,2.50
2018-01-30T05:09:09.016Z,2.43
2018-01-30T05:11:36.468Z,2.07
2018-01-30T05:14:03.943Z,2.47
2018-01-30T05:16:31.410Z,2.40
2018-01-30T05:18:59.654Z,3.83
2018-01-30T05:21:27.123Z,3.90
2018-01-30T05:23:54.599Z,2.53
2018-01-30T05:26:22.079Z,2.10
2018-01-30T05:28:49.555Z,2.43
2018-01-30T05:31:17.024Z,2.70
2018-01-30T05:33:44.494Z,2.57
2018-01-30T05:36:11.957Z,2.30
2018-01-30T05:38:39.423Z,3.20
2018-01-30T05:41:06.894Z,2.47
2018-01-30T05:43:34.357Z,2.47
2018-01-30T05:46:01.827Z,2.13
2018-01-30T05:48:30.067Z,3.00
2018-01-30T05:50:57.534Z,3.20
2018-01-30T05:53:25.017Z,3.10
2018-01-30T05:55:52.480Z,3.00
2018-01-30T05:58:20.710Z,2.37
2018-01-30T06:00:48.194Z,2.37
2018-01-30T06:03:15.672Z,2.70
2018-01-30T06:05:43.136Z,3.10
2018-01-30T06:08:11.366Z,2.40
2018-01-30T06:10:38.844Z,2.27
2018-01-30T06:13:06.306Z,2.73
2018-01-30T06:15:33.786Z,2.50
2018-01-30T06:18:02.023Z,2.47
2018-01-30T06:20:29.491Z,2.67
2018-01-30T06:22:56.954Z,3.50
2018-01-30T06:25:24.434Z,2.27
2018-01-30T06:27:52.658Z,2.50
2018-01-30T06:30:20.147Z,3.00
2018-01-30T06:32:47.607Z,3.13
2018-01-30T06:35:15.073Z,2.87
2018-01-30T06:37:43.305Z,2.90
2018-01-30T06:40:10.780Z,3.40
2018-01-30T06:42:38.249Z,2.27
2018-01-30T06:45:05.718Z,3.23
2018-01-30T06:47:33.204Z,2.53
2018-01-30T06:50:01.442Z,2.63
2018-01-30T06:52:28.907Z,3.10
2018-01-30T06:54:56.416Z,2.70
2018-01-30T06:57:23.877Z,2.60
2018-01-30T06:59:51.356Z,2.83
2018-01-30T07:02:18.822Z,2.47
2018-01-30T07:04:46.293Z,2.50
2018-01-30T07:07:13.754Z,2.70
2018-01-30T07:09:41.223Z,2.70
2018-01-30T07:12:08.697Z,3.67
2018-01-30T07:14:36.934Z,2.93
2018-01-30T07:17:04.404Z,3.50
2018-01-30T07:19:31.869Z,2.80
2018-01-30T07:21:59.348Z,4.00
2018-01-30T07:24:27.582Z,4.20
2018-01-30T07:26:55.053Z,2.77
2018-01-30T07:29:22.598Z,3.50
2018-01-30T07:31:50.063Z,3.10
2018-01-30T07:34:17.534Z,3.80
2018-01-30T07:36:44.995Z,2.57
2018-01-30T07:39:12.475Z,2.47
2018-01-30T07:41:40.711Z,1.93
2018-01-30T07:44:08.182Z,4.23
2018-01-30T07:46:35.650Z,3.10
2018-01-30T07:49:03.126Z,3.83
2018-01-30T07:51:31.352Z,2.67
2018-01-30T07:53:58.835Z,5.00
2018-01-30T07:56:26.302Z,2.80
2018-01-30T07:58:53.778Z,2.80
2018-01-30T08:01:22.031Z,4.07
2018-01-30T08:03:49.495Z,3.47
2018-01-30T08:06:17.014Z,2.53
2018-01-30T08:08:44.482Z,2.70
2018-01-30T08:11:11.952Z,3.30
2018-01-30T08:13:39.427Z,2.90
2018-01-30T08:16:06.903Z,2.97
2018-01-30T08:18:35.145Z,3.30
2018-01-30T08:21:03.418Z,2.83
2018-01-30T08:23:30.883Z,2.60
2018-01-30T08:25:58.355Z,3.80
2018-01-30T08:28:25.823Z,2.97
2018-01-30T08:30:54.066Z,3.03
2018-01-30T08:33:21.534Z,2.43
2018-01-30T08:35:49.010Z,2.50
2018-01-30T08:38:17.253Z,2.30
2018-01-30T08:40:44.722Z,2.87
2018-01-30T08:43:12.194Z,3.17
2018-01-30T08:45:39.732Z,2.77
2018-01-30T08:48:07.152Z,2.57
2018-01-30T08:50:34.627Z,3.60
2018-01-30T08:53:02.098Z,2.23
2018-01-30T08:55:29.562Z,2.50
2018-01-30T08:57:57.055Z,3.20
2018-01-30T09:00:24.524Z,2.47
2018-01-30T09:02:52.763Z,2.50
2018-01-30T09:05:20.244Z,2.63
2018-01-30T09:07:48.472Z,1.90
2018-01-30T09:10:15.939Z,2.43
2018-01-30T09:12:43.457Z,2.70
2018-01-30T09:15:11.683Z,2.50
2018-01-30T09:17:39.158Z,2.40
2018-01-30T09:20:06.642Z,2.50
2018-01-30T09:22:34.916Z,3.67
2018-01-30T09:25:02.346Z,3.37
2018-01-30T09:27:29.814Z,3.20
2018-01-30T09:29:57.289Z,2.70
2018-01-30T09:32:25.529Z,2.90
2018-01-30T09:34:53.008Z,2.53
2018-01-30T09:37:21.315Z,2.70
2018-01-30T09:39:48.784Z,2.80
2018-01-30T09:42:16.267Z,3.17
2018-01-30T09:44:43.735Z,2.97
2018-01-30T09:47:11.202Z,2.60
2018-01-30T09:49:38.668Z,2.93
2018-01-30T09:52:06.134Z,2.87
2018-01-30T09:54:33.611Z,2.80
2018-01-30T09:57:01.840Z,3.07
2018-01-30T09:59:29.310Z,2.83
2018-01-30T10:01:56.774Z,3.30
2018-01-30T10:04:24.254Z,3.50
2018-01-30T10:06:52.489Z,2.27
2018-01-30T10:09:19.954Z,2.70
2018-01-30T10:11:47.417Z,2.87
2018-01-30T10:14:14.895Z,2.37
2018-01-30T10:16:42.383Z,4.10
2018-01-30T10:19:10.609Z,3.03
2018-01-30T10:21:38.078Z,2.23
2018-01-30T10:24:05.546Z,2.90
2018-01-30T10:26:33.018Z,2.37
2018-01-30T10:29:01.254Z,2.73
2018-01-30T10:31:28.731Z,2.47
2018-01-30T10:33:56.194Z,2.90
2018-01-30T10:36:23.662Z,3.57
2018-01-30T10:38:51.886Z,3.33
2018-01-30T10:41:19.361Z,2.70
2018-01-30T10:43:46.835Z,4.93
2018-01-30T10:46:14.306Z,2.93
2018-01-30T10:48:41.761Z,3.30
2018-01-30T10:51:09.234Z,2.43
2018-01-30T10:53:37.474Z,2.70
2018-01-30T10:56:04.946Z,2.33
2018-01-30T10:58:32.414Z,2.33
2018-01-30T11:00:59.883Z,2.83
2018-01-30T11:03:28.120Z,4.67
2018-01-30T11:05:55.594Z,2.80
2018-01-30T11:08:23.055Z,2.73
2018-01-30T11:10:50.539Z,3.03
2018-01-30T11:13:18.777Z,3.03
2018-01-30T11:15:47.010Z,3.10
2018-01-30T11:18:14.499Z,2.63
2018-01-30T11:20:41.970Z,4.20
2018-01-30T11:23:09.451Z,4.60
2018-01-30T11:25:36.924Z,3.77
2018-01-30T11:28:05.157Z,3.00
2018-01-30T11:30:32.641Z,2.87
2018-01-30T11:33:00.103Z,2.73
2018-01-30T11:35:27.567Z,2.67
2018-01-30T11:37:55.800Z,2.90
2018-01-30T11:40:23.268Z,2.57
2018-01-30T11:42:50.754Z,3.77
2018-01-30T11:45:18.224Z,3.00
2018-01-30T11:47:46.462Z,2.73
2018-01-30T11:50:13.942Z,3.67
2018-01-30T11:52:41.400Z,2.80
2018-01-30T11:55:08.875Z,4.10
2018-01-30T11:57:37.101Z,3.00
2018-01-30T12:00:04.567Z,2.77
2018-01-30T12:02:32.040Z,2.37
2018-01-30T12:04:59.518Z,3.20
2018-01-30T12:07:26.981Z,2.20
2018-01-30T12:09:55.219Z,2.43
2018-01-30T12:12:22.682Z,3.67
2018-01-30T12:14:50.153Z,2.03
2018-01-30T12:17:17.636Z,2.60
2018-01-30T12:19:45.876Z,2.23
2018-01-30T12:22:13.342Z,2.60
2018-01-30T12:24:40.807Z,3.87
2018-01-30T12:27:08.283Z,2.80
2018-01-30T12:29:36.507Z,2.70
2018-01-30T12:32:03.978Z,2.50
2018-01-30T12:34:31.438Z,4.63
2018-01-30T12:36:58.915Z,2.50
2018-01-30T12:39:26.379Z,3.13
2018-01-30T12:41:53.851Z,4.23
2018-01-30T12:44:22.084Z,2.37
2018-01-30T12:46:49.555Z,3.60
2018-01-30T12:49:17.025Z,3.77
2018-01-30T12:51:44.495Z,2.50
2018-01-30T12:54:12.728Z,3.17
2018-01-30T12:56:40.195Z,2.50
2018-01-30T12:59:07.659Z,2.80
2018-01-30T13:01:35.138Z,3.43
2018-01-30T13:04:02.662Z,3.20
2018-01-30T13:06:30.139Z,2.67
2018-01-30T13:08:57.610Z,2.83
2018-01-30T13:11:25.094Z,4.03
2018-01-30T13:13:53.328Z,3.53
2018-01-30T13:16:21.566Z,2.80
2018-01-30T13:18:49.026Z,3.90
2018-01-30T13:21:16.510Z,3.30
2018-01-30T13:23:43.978Z,4.10
2018-01-30T13:26:11.473Z,2.83
2018-01-30T13:28:39.703Z,3.30
2018-01-30T13:31:07.171Z,4.03
2018-01-30T13:33:34.644Z,3.37
2018-01-30T13:36:02.132Z,3.40
2018-01-30T13:38:30.358Z,3.53
2018-01-30T13:40:57.839Z,3.73
2018-01-30T13:43:25.318Z,3.80
2018-01-30T13:45:53.565Z,4.20
2018-01-30T13:48:21.035Z,5.40
2018-01-30T13:50:48.498Z,4.10
2018-01-30T13:53:16.735Z,4.63
2018-01-30T13:55:44.206Z,5.47
2018-01-30T13:58:11.678Z,4.83
2018-01-30T14:00:39.160Z,5.13
2018-01-30T14:03:07.403Z,4.40
2018-01-30T14:05:34.939Z,3.93
2018-01-30T14:08:02.407Z,6.93
2018-01-30T14:10:29.895Z,5.03
2018-01-30T14:12:57.355Z,5.10
2018-01-30T14:15:24.830Z,4.10
2018-01-30T14:17:53.063Z,5.17
2018-01-30T14:20:20.549Z,8.03
2018-01-30T14:22:48.024Z,4.63
2018-01-30T14:25:16.996Z,5.30
2018-01-30T14:27:44.470Z,5.50
2018-01-30T14:30:11.930Z,5.43
2018-01-30T14:32:40.173Z,5.87
2018-01-30T14:35:07.651Z,5.57
2018-01-30T14:37:35.135Z,5.80
2018-01-30T14:40:03.375Z,6.40
2018-01-30T14:42:30.850Z,5.10
2018-01-30T14:44:58.316Z,5.27
2018-01-30T14:47:26.551Z,6.27
2018-01-30T14:49:54.028Z,6.70
2018-01-30T14:52:21.507Z,5.83
2018-01-30T14:54:49.738Z,4.80
2018-01-30T14:57:17.212Z,6.03
2018-01-30T14:59:44.682Z,5.80
2018-01-30T15:02:12.151Z,5.13
2018-01-30T15:04:39.622Z,5.90
2018-01-30T15:07:07.858Z,5.53
2018-01-30T15:09:35.315Z,6.47
2018-01-30T15:12:02.795Z,7.10
2018-01-30T15:14:30.254Z,5.83
2018-01-30T15:16:57.731Z,6.30
2018-01-30T15:19:25.958Z,5.93
2018-01-30T15:21:53.431Z,6.80
2018-01-30T15:24:20.894Z,6.47
2018-01-30T15:26:48.371Z,5.80
2018-01-30T15:29:16.590Z,6.20
2018-01-30T15:31:44.070Z,5.80
2018-01-30T15:34:11.539Z,5.57
2018-01-30T15:36:39.020Z,6.33
2018-01-30T15:39:06.485Z,7.20
2018-01-30T15:41:34.732Z,7.10
2018-01-30T15:44:02.198Z,6.73
2018-01-30T15:46:29.667Z,6.60
2018-01-30T15:48:57.130Z,5.90
2018-01-30T15:51:25.367Z,6.90
2018-01-30T15:53:52.842Z,6.00
2018-01-30T15:56:20.352Z,6.60
2018-01-30T15:58:47.805Z,7.00
2018-01-30T16:01:15.289Z,6.47
2018-01-30T16:03:42.755Z,6.53
2018-01-30T16:06:10.222Z,5.93
2018-01-30T16:08:37.686Z,6.43
2018-01-30T16:11:05.163Z,6.70
2018-01-30T16:13:32.630Z,6.50
2018-01-30T16:16:00.876Z,6.53
2018-01-30T16:18:28.338Z,7.77
2018-01-30T16:20:55.810Z,6.60
2018-01-30T16:23:23.288Z,6.93
2018-01-30T16:25:51.518Z,6.97
2018-01-30T16:28:18.995Z,6.80
2018-01-30T16:30:46.462Z,6.37
2018-01-30T16:33:13.943Z,7.17
2018-01-30T16:35:42.174Z,6.83
2018-01-30T16:38:09.647Z,6.80
2018-01-30T16:40:37.106Z,7.33
2018-01-30T16:43:04.588Z,6.47
2018-01-30T16:45:32.831Z,7.27
2018-01-30T16:48:00.325Z,6.77
2018-01-30T16:50:27.776Z,7.10
2018-01-30T16:52:55.246Z,6.50
2018-01-30T16:55:23.471Z,5.53
2018-01-30T16:57:50.939Z,6.27
2018-01-30T17:00:18.411Z,5.50
2018-01-30T17:02:45.906Z,6.53
2018-01-30T17:05:13.422Z,6.67
2018-01-30T17:07:40.897Z,7.07
2018-01-30T17:10:08.362Z,6.27
2018-01-30T17:12:36.604Z,6.80
2018-01-30T17:15:04.066Z,7.37
2018-01-30T17:17:31.552Z,6.47
2018-01-30T17:19:59.042Z,6.90
2018-01-30T17:22:26.527Z,7.60
2018-01-30T17:24:53.998Z,7.90
2018-01-30T17:27:21.475Z,5.90
2018-01-30T17:29:48.946Z,6.63
2018-01-30T17:32:17.199Z,6.40
2018-01-30T17:34:44.660Z,6.23
2018-01-30T17:37:12.121Z,6.37
2018-01-30T17:39:39.609Z,6.47
2018-01-30T17:42:07.855Z,7.30
2018-01-30T17:44:35.318Z,5.90
2018-01-30T17:47:02.800Z,7.43
2018-01-30T17:49:31.034Z,6.90
2018-01-30T17:51:58.506Z,6.70
2018-01-30T17:54:25.982Z,6.50
2018-01-30T17:56:54.209Z,6.20
2018-01-30T17:59:21.687Z,7.10
2018-01-30T18:01:49.183Z,8.67
2018-01-30T18:04:17.419Z,7.10
2018-01-30T18:06:44.902Z,8.60
2018-01-30T18:09:12.367Z,7.90
2018-01-30T18:11:40.611Z,7.13
2018-01-30T18:14:08.080Z,6.97
2018-01-30T18:16:35.580Z,7.40
2018-01-30T18:19:03.050Z,14.67
2018-01-30T18:21:30.528Z,19.50
2018-01-30T18:23:58.010Z,15.20
2018-01-30T18:26:25.474Z,6.60
2018-01-30T18:28:52.951Z,7.57
2018-01-30T18:31:21.190Z,6.20
2018-01-30T18:33:48.673Z,6.57
2018-01-30T18:36:16.144Z,6.83
2018-01-30T18:38:43.620Z,6.27
2018-01-30T18:41:11.859Z,6.50
2018-01-30T18:43:39.340Z,6.77
2018-01-30T18:46:07.621Z,5.47
2018-01-30T18:48:35.058Z,6.40
2018-01-30T18:51:02.524Z,6.87
2018-01-30T18:53:30.007Z,6.13
2018-01-30T18:55:57.463Z,5.73
2018-01-30T18:58:24.948Z,6.70
2018-01-30T19:00:52.413Z,7.10
2018-01-30T19:03:19.890Z,6.60
2018-01-30T19:05:47.353Z,7.63
2018-01-30T19:08:14.824Z,7.87
2018-01-30T19:10:42.278Z,7.43
2018-01-30T19:13:09.746Z,8.10
2018-01-30T19:15:37.222Z,8.40
2018-01-30T19:18:05.458Z,7.53
2018-01-30T19:20:32.938Z,7.60
2018-01-30T19:23:00.417Z,6.67
2018-01-30T19:25:28.650Z,7.23
2018-01-30T19:27:56.123Z,8.53
2018-01-30T19:30:23.587Z,7.70
2018-01-30T19:32:51.063Z,8.50
2018-01-30T19:35:19.307Z,7.67
2018-01-30T19:37:46.780Z,10.17
2018-01-30T19:40:14.246Z,7.30
2018-01-30T19:42:42.482Z,7.03
2018-01-30T19:45:09.951Z,6.40
2018-01-30T19:47:37.432Z,5.93
2018-01-30T19:50:04.894Z,6.23
2018-01-30T19:52:33.134Z,6.30
2018-01-30T19:55:01.366Z,5.83
2018-01-30T19:57:28.843Z,5.20
2018-01-30T19:59:56.311Z,6.53
2018-01-30T20:02:24.138Z,5.60
2018-01-30T20:04:52.368Z,5.80
2018-01-30T20:07:20.430Z,5.10
2018-01-30T20:09:47.896Z,5.97
2018-01-30T20:12:16.139Z,4.80
2018-01-30T20:14:43.607Z,4.83
2018-01-30T20:20:04.499Z,4.87
2018-01-30T20:22:32.735Z,5.40
2018-01-30T20:25:00.203Z,5.07
2018-01-30T20:27:27.670Z,5.43
2018-01-30T20:29:55.163Z,4.93
2018-01-30T20:32:23.398Z,5.47
2018-01-30T20:34:50.858Z,5.10
2018-01-30T20:37:23.226Z,6.53
2018-01-30T20:39:50.707Z,5.57
2018-01-30T20:42:18.177Z,6.13
2018-01-30T20:44:46.416Z,5.70
2018-01-30T20:47:13.892Z,6.83
2018-01-30T20:49:41.361Z,5.73
2018-01-30T20:52:09.590Z,5.40
2018-01-30T20:54:37.064Z,5.03
2018-01-30T20:57:04.539Z,6.10
2018-01-30T20:59:32.019Z,6.30
2018-01-30T21:02:00.247Z,6.77
2018-01-30T21:04:27.727Z,7.43
2018-01-30T21:06:55.191Z,5.30
2018-01-30T21:09:22.662Z,6.50
2018-01-30T21:11:50.898Z,8.10
2018-01-30T21:14:18.379Z,10.30
2018-01-30T21:16:45.871Z,12.80
2018-01-30T21:19:14.111Z,12.73
2018-01-30T21:21:41.593Z,12.17
2018-01-30T21:24:09.842Z,13.27
2018-01-30T21:26:37.320Z,12.17
2018-01-30T21:29:04.799Z,14.50
2018-01-30T21:31:33.049Z,16.07
2018-01-30T21:34:00.527Z,16.87
2018-01-30T21:36:28.762Z,16.40
2018-01-30T21:38:56.248Z,15.60
2018-01-30T21:41:23.778Z,17.90
2018-01-30T21:43:51.227Z,17.80
2018-01-30T21:46:18.734Z,16.53
2018-01-30T21:48:47.601Z,16.70
2018-01-30T21:51:15.073Z,14.50
2018-01-30T21:53:42.555Z,14.40
2018-01-30T21:56:10.031Z,15.60
2018-01-30T21:58:37.503Z,16.60
2018-01-30T22:01:04.986Z,15.40
2018-01-30T22:03:32.462Z,14.13
2018-01-30T22:05:59.927Z,11.43
2018-01-30T22:08:28.174Z,9.90
2018-01-30T22:10:55.650Z,11.03
2018-01-30T22:13:23.134Z,10.20
2018-01-30T22:15:51.362Z,7.77
2018-01-30T22:18:18.847Z,8.23
2018-01-30T22:20:46.311Z,6.70
2018-01-30T22:23:14.550Z,8.40
2018-01-30T22:25:42.006Z,9.00
2018-01-30T22:28:09.496Z,8.27
2018-01-30T22:30:36.957Z,6.80
2018-01-30T22:33:04.425Z,6.00
2018-01-30T22:35:32.671Z,7.03
2018-01-30T22:38:00.162Z,5.77
2018-01-30T22:40:28.395Z,5.13
2018-01-30T22:42:55.863Z,6.73
2018-01-30T22:45:23.331Z,6.80
